Port Allegany, PA

12:52 PM EDT on May 06, 2015 (GMT -0400)
Annin Township | | Change Station
CLOSE
Current Station
Personal Weather Station
Location: Turtlepoint, PA
Elevation: 1578 ft
Nearby Weather Stations

Elev 1578 ft 41.88 °N, 78.30 °W | Updated 10 seconds ago

Overcast
Overcast
59.2 °F
Feels Like 59.2 °F
N
1.2
Wind Variable Wind from NE
Gusts 4.5 mph

Today
High -- | Low -- °F
--% Chance of Precip.
Yesterday
High -- | Low -- °F
Precip. -- in
6:03 AM 8:16 PM
Waning Gibbous, 93% visible
Pressure 30.27 in
Visibility 4.0 miles
Clouds Overcast 200 ft
Dew Point 36 °F
Humidity 41%
Rainfall 0.33 in
Snow Depth Not available.
UV 3 out of 12
Pollen 5.70 out of 12
Air Quality Not available.
Flu Activity Sporadic
METAR KBFD 061553Z AUTO 09004KT 4SM BR OVC002 12/11 A3028 RMK AO2 SLP251 T01220111

More Conditions Fewer Conditions

Pressure 30.27 in
Visibility 4.0 miles
Clouds Overcast 200 ft
Dew Point 36 °F
Humidity 41%
Rainfall 0.33 in
Snow Depth Not available.
UV 3 out of 12
Pollen 5.70 out of 12
Air Quality Not available.
Flu Activity Sporadic
METAR KBFD 061553Z AUTO 09004KT 4SM BR OVC002 12/11 A3028 RMK AO2 SLP251 T01220111

More Conditions Fewer Conditions

10-Day Weather Forecast

Almanac

Astronomy

May. 06, 2015 Rise Set
Actual Time
Civil Twilight
Nautical Twilight
Astronomical Twilight
Moon
Length of Visible Light
Length of Day
Tomorrow will be .
, % of the Moon is Illuminated

Today's Extremes

State Highs State Lows

Community

WunderPhotos

Upload Photos

1,818,949 photos uploaded!

WunderBlogs® & News

Nearby

Air Quality

  Air Quality AQ Index Pollutant
Not available.

Snow Depth

Station Depth Elevation

Earthquake Activity

City Distance Mag. Time & Date
Minimum magnitude displayed is 2.5.

Coastal Water Temperatures

Place Temperature

Stations

Nearby Weather Stations

Station Location Temp. Windchill Dew Point Humidity Wind Precip. Elev Updated Type